createdAt,value
2022-11-24T00:00:54.115Z,7.40
2022-11-24T00:03:20.736Z,7.30
2022-11-24T00:05:47.276Z,7.30
2022-11-24T00:08:13.813Z,7.40
2022-11-24T00:10:40.290Z,7.40
2022-11-24T00:13:06.799Z,7.40
2022-11-24T00:15:33.308Z,7.50
2022-11-24T00:17:59.817Z,7.50
2022-11-24T00:20:27.109Z,7.50
2022-11-24T00:22:53.594Z,7.50
2022-11-24T00:25:20.105Z,7.50
2022-11-24T00:27:46.642Z,7.60
2022-11-24T00:30:13.471Z,7.60
2022-11-24T00:32:40.002Z,7.60
2022-11-24T00:35:07.569Z,7.60
2022-11-24T00:37:34.162Z,7.50
2022-11-24T00:40:00.651Z,7.50
2022-11-24T00:42:27.131Z,7.50
2022-11-24T00:44:53.601Z,7.50
2022-11-24T00:47:20.183Z,7.50
2022-11-24T00:49:46.710Z,7.60
2022-11-24T00:52:13.199Z,7.50
2022-11-24T00:54:39.685Z,7.60
2022-11-24T00:57:06.251Z,7.60
2022-11-24T00:59:32.790Z,7.60
2022-11-24T01:01:59.382Z,7.50
2022-11-24T01:04:25.903Z,7.50
2022-11-24T01:06:52.364Z,7.60
2022-11-24T01:09:18.836Z,7.50
2022-11-24T01:12:04.160Z,7.50
2022-11-24T01:14:30.861Z,7.50
2022-11-24T01:16:57.535Z,7.50
2022-11-24T01:19:24.033Z,7.40
2022-11-24T01:21:50.588Z,7.50
2022-11-24T01:24:17.157Z,7.40
2022-11-24T01:26:43.746Z,7.40
2022-11-24T01:29:10.222Z,7.40
2022-11-24T01:31:37.019Z,7.40
2022-11-24T01:34:03.576Z,7.40
2022-11-24T01:36:30.044Z,7.40
2022-11-24T01:38:56.569Z,7.40
2022-11-24T01:41:23.215Z,7.40
2022-11-24T01:43:49.705Z,7.30
2022-11-24T01:46:16.304Z,7.30
2022-11-24T01:48:43.630Z,7.30
2022-11-24T01:51:10.113Z,7.30
2022-11-24T01:53:36.661Z,7.30
2022-11-24T01:56:03.138Z,7.30
2022-11-24T01:58:29.650Z,7.20
2022-11-24T02:00:56.122Z,7.20
2022-11-24T02:03:22.637Z,7.10
2022-11-24T02:05:49.097Z,7.10
2022-11-24T02:08:15.695Z,7.00
2022-11-24T02:10:42.162Z,7.00
2022-11-24T02:13:08.647Z,7.00
2022-11-24T02:15:35.349Z,6.90
2022-11-24T02:18:01.885Z,6.90
2022-11-24T02:20:28.397Z,6.90
2022-11-24T02:22:55.069Z,6.90
2022-11-24T02:25:21.563Z,6.90
2022-11-24T02:27:53.477Z,6.90
2022-11-24T02:30:20.511Z,6.80
2022-11-24T02:32:46.995Z,6.80
2022-11-24T02:35:13.541Z,6.80
2022-11-24T02:37:40.090Z,6.80
2022-11-24T02:40:06.630Z,6.80
2022-11-24T02:42:33.108Z,6.80
2022-11-24T02:44:59.606Z,6.70
2022-11-24T02:47:26.274Z,6.70
2022-11-24T02:49:52.771Z,6.70
2022-11-24T02:52:19.327Z,6.70
2022-11-24T02:54:45.851Z,6.80
2022-11-24T02:57:12.388Z,6.80
2022-11-24T02:59:38.933Z,6.80
2022-11-24T03:02:05.820Z,6.80
2022-11-24T03:04:32.838Z,6.90
2022-11-24T03:06:59.668Z,6.90
2022-11-24T03:09:26.337Z,6.90
2022-11-24T03:11:55.510Z,6.90
2022-11-24T03:14:22.376Z,6.90
2022-11-24T03:16:49.191Z,6.90
2022-11-24T03:19:15.867Z,7.00
2022-11-24T03:21:42.639Z,7.00
2022-11-24T03:24:09.295Z,7.00
2022-11-24T03:26:35.773Z,7.00
2022-11-24T03:29:02.621Z,7.00
2022-11-24T03:31:29.548Z,7.10
2022-11-24T03:33:56.608Z,7.10
2022-11-24T03:36:23.237Z,7.10
2022-11-24T03:38:50.239Z,7.10
2022-11-24T03:41:17.355Z,7.10
2022-11-24T03:43:44.508Z,7.20
2022-11-24T03:46:11.096Z,7.20
2022-11-24T03:48:37.734Z,7.10
2022-11-24T03:51:04.322Z,7.00
2022-11-24T03:53:30.889Z,7.00
2022-11-24T03:55:57.395Z,7.00
2022-11-24T03:58:23.869Z,7.00
2022-11-24T04:00:50.387Z,7.00
2022-11-24T04:03:16.900Z,6.90
2022-11-24T04:05:43.481Z,6.90
2022-11-24T04:08:09.996Z,7.00
2022-11-24T04:10:36.908Z,7.00
2022-11-24T04:13:03.405Z,7.00
2022-11-24T04:15:29.928Z,7.00
2022-11-24T04:17:56.571Z,7.00
2022-11-24T04:20:23.259Z,7.00
2022-11-24T04:22:49.738Z,7.00
2022-11-24T04:25:17.594Z,7.00
2022-11-24T04:27:44.080Z,6.90
2022-11-24T04:30:10.675Z,6.90
2022-11-24T04:32:37.152Z,6.80
2022-11-24T04:35:03.648Z,6.80
2022-11-24T04:37:30.151Z,6.90
2022-11-24T04:39:56.632Z,6.90
2022-11-24T04:42:23.166Z,6.90
2022-11-24T04:44:49.644Z,6.90
2022-11-24T04:47:16.277Z,6.90
2022-11-24T04:49:42.770Z,6.90
2022-11-24T04:52:09.294Z,6.90
2022-11-24T04:54:36.060Z,6.90
2022-11-24T04:57:02.805Z,6.90
2022-11-24T04:59:29.295Z,6.90
2022-11-24T05:01:55.881Z,6.90
2022-11-24T05:04:22.584Z,7.00
2022-11-24T05:06:49.109Z,7.00
2022-11-24T05:09:15.916Z,7.00
2022-11-24T05:11:42.398Z,7.00
2022-11-24T05:14:08.921Z,7.00
2022-11-24T05:16:35.945Z,7.00
2022-11-24T05:19:02.582Z,7.00
2022-11-24T05:21:29.118Z,7.10
2022-11-24T05:23:55.696Z,7.00
2022-11-24T05:26:22.175Z,7.00
2022-11-24T05:28:48.675Z,7.00
2022-11-24T05:31:15.214Z,7.00
2022-11-24T05:33:43.267Z,7.00
2022-11-24T05:36:29.727Z,7.00
2022-11-24T05:38:56.202Z,7.00
2022-11-24T05:41:22.691Z,6.90
2022-11-24T05:43:49.193Z,6.90
2022-11-24T05:46:15.748Z,6.90
2022-11-24T05:48:42.319Z,6.90
2022-11-24T05:51:09.505Z,6.90
2022-11-24T05:53:36.213Z,6.90
2022-11-24T05:56:02.826Z,7.00
2022-11-24T05:58:29.303Z,7.00
2022-11-24T06:00:55.835Z,7.00
2022-11-24T06:03:22.482Z,7.00
2022-11-24T06:05:49.001Z,6.90
2022-11-24T06:08:15.491Z,6.90
2022-11-24T06:10:42.185Z,6.90
2022-11-24T06:13:08.814Z,6.90
2022-11-24T06:15:37.488Z,6.90
2022-11-24T06:18:04.003Z,6.90
2022-11-24T06:20:32.859Z,6.90
2022-11-24T06:22:59.897Z,6.90
2022-11-24T06:25:26.409Z,6.90
2022-11-24T06:27:52.887Z,7.00
2022-11-24T06:30:19.402Z,7.00
2022-11-24T06:32:49.297Z,7.00
2022-11-24T06:35:16.623Z,6.90
2022-11-24T06:37:43.266Z,6.90
2022-11-24T06:40:09.852Z,6.90
2022-11-24T06:42:36.356Z,6.90
2022-11-24T06:45:07.436Z,6.90
2022-11-24T06:47:35.662Z,7.00
2022-11-24T06:50:02.217Z,7.00
2022-11-24T06:52:28.718Z,7.00
2022-11-24T06:54:55.297Z,7.00
2022-11-24T06:57:21.844Z,7.00
2022-11-24T06:59:48.387Z,7.00
2022-11-24T07:02:14.914Z,7.00
2022-11-24T07:04:41.398Z,7.00
2022-11-24T07:07:08.025Z,7.00
2022-11-24T07:09:34.579Z,7.10
2022-11-24T07:12:02.223Z,7.10
2022-11-24T07:14:28.710Z,7.10
2022-11-24T07:16:55.264Z,7.10
2022-11-24T07:19:25.070Z,7.10
2022-11-24T07:21:51.854Z,7.10
2022-11-24T07:24:18.634Z,7.10
2022-11-24T07:26:45.128Z,7.10
2022-11-24T07:29:11.650Z,7.10
2022-11-24T07:31:38.196Z,7.10
2022-11-24T07:34:04.804Z,7.10
2022-11-24T07:36:31.291Z,7.20
2022-11-24T07:38:57.875Z,7.10
2022-11-24T07:41:24.409Z,7.10
2022-11-24T07:43:51.661Z,7.20
2022-11-24T07:46:18.989Z,7.20
2022-11-24T07:48:45.635Z,7.20
2022-11-24T07:51:12.109Z,7.30
2022-11-24T07:53:38.676Z,7.30
2022-11-24T07:56:06.065Z,7.40
2022-11-24T07:58:33.266Z,7.40
2022-11-24T08:00:59.957Z,7.30
2022-11-24T08:03:26.571Z,7.30
2022-11-24T08:06:22.295Z,7.30
2022-11-24T08:08:39.668Z,7.30
2022-11-24T08:11:06.180Z,7.30
2022-11-24T08:13:32.674Z,7.30
2022-11-24T08:15:59.271Z,7.30
2022-11-24T08:18:25.859Z,7.30
2022-11-24T08:20:52.544Z,7.30
2022-11-24T08:23:19.092Z,7.30
2022-11-24T08:25:45.650Z,7.30
2022-11-24T08:28:12.160Z,7.30
2022-11-24T08:30:38.671Z,7.30
2022-11-24T08:33:05.198Z,7.30
2022-11-24T08:35:31.714Z,7.30
2022-11-24T08:38:03.205Z,7.30
2022-11-24T08:40:31.440Z,7.30
2022-11-24T08:42:58.118Z,7.30
2022-11-24T08:45:25.630Z,7.30
2022-11-24T08:47:52.691Z,7.30
2022-11-24T08:50:19.163Z,7.30
2022-11-24T08:52:45.676Z,7.30
2022-11-24T08:55:12.968Z,7.30
2022-11-24T08:57:39.473Z,7.30
2022-11-24T09:00:06.170Z,7.30
2022-11-24T09:02:32.648Z,7.30
2022-11-24T09:04:59.149Z,7.30
2022-11-24T09:07:25.688Z,7.30
2022-11-24T09:09:52.259Z,7.30
2022-11-24T09:12:18.739Z,7.30
2022-11-24T09:14:45.260Z,7.30
2022-11-24T09:17:11.830Z,7.30
2022-11-24T09:19:38.416Z,7.30
2022-11-24T09:22:04.969Z,7.30
2022-11-24T09:24:31.443Z,7.30
2022-11-24T09:26:57.953Z,7.40
2022-11-24T09:29:24.557Z,7.30
2022-11-24T09:31:51.075Z,7.30
2022-11-24T09:34:17.641Z,7.30
2022-11-24T09:36:44.175Z,7.40
2022-11-24T09:39:10.661Z,7.40
2022-11-24T09:41:37.418Z,7.40
2022-11-24T09:44:03.936Z,7.40
2022-11-24T09:46:30.534Z,7.40
2022-11-24T09:48:57.069Z,7.40
2022-11-24T09:51:24.911Z,7.40
2022-11-24T09:53:51.412Z,7.50
2022-11-24T09:56:17.894Z,7.40
2022-11-24T09:58:44.489Z,7.40
2022-11-24T10:01:11.055Z,7.40
2022-11-24T10:03:37.628Z,7.30
2022-11-24T10:06:04.110Z,7.30
2022-11-24T10:08:30.590Z,7.20
2022-11-24T10:10:57.159Z,7.20
2022-11-24T10:13:23.628Z,7.10
2022-11-24T10:15:50.140Z,7.10
2022-11-24T10:18:17.307Z,7.20
2022-11-24T10:20:44.646Z,7.20
2022-11-24T10:23:11.180Z,7.20
2022-11-24T10:25:37.673Z,7.30
2022-11-24T10:28:04.153Z,7.40
2022-11-24T10:30:30.706Z,7.40
2022-11-24T10:32:57.226Z,7.50
2022-11-24T10:35:23.907Z,7.50
2022-11-24T10:37:50.417Z,7.50
2022-11-24T10:40:40.566Z,7.50
2022-11-24T10:43:10.265Z,7.50
2022-11-24T10:45:37.797Z,7.50
2022-11-24T10:48:04.304Z,7.50
2022-11-24T10:50:31.052Z,7.60
2022-11-24T10:52:57.541Z,7.60
2022-11-24T10:55:24.069Z,7.60
2022-11-24T10:57:50.699Z,7.70
2022-11-24T11:00:17.239Z,7.70
2022-11-24T11:02:43.789Z,7.70
2022-11-24T11:05:10.368Z,7.70
2022-11-24T11:07:36.947Z,7.70
2022-11-24T11:10:03.591Z,7.70
2022-11-24T11:12:45.757Z,7.80
2022-11-24T11:15:12.461Z,7.80
2022-11-24T11:17:38.996Z,7.80
2022-11-24T11:20:06.142Z,7.80
2022-11-24T11:22:32.862Z,7.80
2022-11-24T11:24:59.332Z,7.90
2022-11-24T11:27:25.856Z,7.90
2022-11-24T11:35:26.243Z,7.90
2022-11-24T11:37:53.424Z,7.80
2022-11-24T11:40:19.951Z,7.80
2022-11-24T11:43:01.939Z,7.80
2022-11-24T11:45:29.934Z,7.80
2022-11-24T11:47:56.564Z,8.00
2022-11-24T11:50:23.106Z,8.00
2022-11-24T11:52:49.687Z,8.10
2022-11-24T11:55:16.159Z,8.10
2022-11-24T11:57:42.639Z,8.10
2022-11-24T12:00:09.472Z,8.10
2022-11-24T12:02:36.107Z,8.10
2022-11-24T12:05:02.733Z,8.10
2022-11-24T12:07:29.346Z,8.10
2022-11-24T12:09:55.880Z,8.20
2022-11-24T12:12:22.531Z,8.20
2022-11-24T12:14:49.018Z,8.30
2022-11-24T12:17:15.523Z,8.40
2022-11-24T12:19:42.329Z,8.50
2022-11-24T12:22:08.812Z,8.60
2022-11-24T12:24:35.393Z,8.80
2022-11-24T12:27:01.973Z,9.00
2022-11-24T12:29:28.483Z,9.30
2022-11-24T12:31:55.011Z,9.60
2022-11-24T12:34:21.516Z,9.90
2022-11-24T12:36:48.012Z,10.20
2022-11-24T12:39:14.473Z,10.40
2022-11-24T12:41:42.507Z,10.70
2022-11-24T12:44:09.376Z,10.90
2022-11-24T12:46:35.920Z,10.90
2022-11-24T12:49:02.532Z,10.80
2022-11-24T12:51:28.998Z,10.70
2022-11-24T12:53:55.528Z,10.70
2022-11-24T12:56:21.983Z,10.80
2022-11-24T12:58:50.216Z,10.60
2022-11-24T13:01:18.353Z,10.40
2022-11-24T13:03:44.928Z,10.20
2022-11-24T13:06:11.429Z,10.20
2022-11-24T13:08:37.913Z,10.00
2022-11-24T13:11:04.566Z,9.90
2022-11-24T13:13:31.283Z,9.70
2022-11-24T13:16:35.326Z,9.60
2022-11-24T13:18:45.011Z,9.50
2022-11-24T13:21:11.519Z,9.40
2022-11-24T13:23:38.000Z,9.40
2022-11-24T13:26:04.635Z,9.40
2022-11-24T13:29:00.144Z,9.40
2022-11-24T13:31:17.628Z,9.40
2022-11-24T13:33:44.136Z,9.50
2022-11-24T13:36:10.619Z,9.50
2022-11-24T13:38:37.142Z,9.60
2022-11-24T13:41:27.704Z,9.60
2022-11-24T13:43:50.127Z,9.60
2022-11-24T13:46:16.793Z,9.60
2022-11-24T13:48:43.345Z,9.60
2022-11-24T13:51:09.923Z,9.60
2022-11-24T13:53:36.431Z,9.60
2022-11-24T13:56:02.976Z,9.50
2022-11-24T13:58:29.464Z,9.50
2022-11-24T14:00:58.424Z,9.50
2022-11-24T14:03:25.211Z,9.50
2022-11-24T14:05:51.798Z,9.40
2022-11-24T14:08:18.322Z,9.50
2022-11-24T14:10:44.799Z,9.40
2022-11-24T14:15:42.788Z,9.40
2022-11-24T14:18:09.280Z,9.40
2022-11-24T14:20:35.793Z,9.40
2022-11-24T14:23:02.279Z,9.30
2022-11-24T14:25:29.811Z,9.30
2022-11-24T14:27:56.340Z,9.20
2022-11-24T14:30:22.955Z,9.20
2022-11-24T14:32:49.468Z,9.20
2022-11-24T14:35:15.972Z,9.20
2022-11-24T14:37:42.475Z,9.20
2022-11-24T14:40:08.959Z,9.10
2022-11-24T14:42:35.452Z,9.10
2022-11-24T14:45:03.730Z,9.00
2022-11-24T14:47:31.856Z,9.00
2022-11-24T14:49:58.923Z,8.90
2022-11-24T14:52:25.508Z,8.80
2022-11-24T14:54:52.058Z,8.70
2022-11-24T14:57:18.581Z,8.60
2022-11-24T14:59:45.134Z,8.50
2022-11-24T15:02:11.725Z,8.40
2022-11-24T15:05:01.412Z,8.40
2022-11-24T15:07:24.812Z,8.30
2022-11-24T15:09:51.486Z,8.20
2022-11-24T15:12:17.961Z,8.20
2022-11-24T15:14:44.453Z,8.20
2022-11-24T15:17:10.980Z,8.10
2022-11-24T15:19:37.735Z,8.10
2022-11-24T15:22:04.201Z,8.10
2022-11-24T15:24:30.711Z,8.10
2022-11-24T15:26:57.218Z,8.00
2022-11-24T15:29:23.703Z,8.00
2022-11-24T15:31:52.801Z,7.90
2022-11-24T15:34:19.782Z,7.80
2022-11-24T15:36:46.314Z,7.80
2022-11-24T15:39:12.828Z,7.80
2022-11-24T15:41:39.336Z,7.80
2022-11-24T15:44:05.934Z,7.70
2022-11-24T15:46:37.827Z,7.70
2022-11-24T15:49:04.739Z,7.60
2022-11-24T15:51:31.233Z,7.60
2022-11-24T15:54:01.197Z,7.50
2022-11-24T15:56:28.021Z,7.50
2022-11-24T15:58:54.801Z,7.40
2022-11-24T16:01:21.323Z,7.40
2022-11-24T16:03:49.039Z,7.30
2022-11-24T16:06:23.394Z,7.30
2022-11-24T16:08:50.993Z,7.30
2022-11-24T16:11:17.514Z,7.30
2022-11-24T16:13:50.085Z,7.20
2022-11-24T16:16:18.762Z,7.20
2022-11-24T16:18:45.423Z,7.10
2022-11-24T16:21:14.488Z,7.10
2022-11-24T16:23:41.038Z,7.00
2022-11-24T16:26:07.584Z,7.00
2022-11-24T16:28:34.280Z,6.90
2022-11-24T16:31:00.781Z,6.90
2022-11-24T16:33:27.284Z,6.90
2022-11-24T16:35:53.824Z,6.90
2022-11-24T16:38:20.321Z,6.90
2022-11-24T16:40:46.793Z,6.90
2022-11-24T16:43:13.266Z,6.90
2022-11-24T16:45:45.164Z,6.90
2022-11-24T16:48:12.079Z,6.90
2022-11-24T16:50:38.566Z,6.90
2022-11-24T16:53:05.082Z,6.90
2022-11-24T16:55:31.570Z,6.90
2022-11-24T16:57:58.092Z,6.90
2022-11-24T17:00:24.596Z,6.80
2022-11-24T17:02:51.362Z,6.80
2022-11-24T17:05:17.910Z,6.80
2022-11-24T17:07:44.441Z,6.80
2022-11-24T17:10:11.015Z,6.80
2022-11-24T17:12:37.624Z,6.80
2022-11-24T17:15:31.041Z,6.80
2022-11-24T17:18:22.466Z,6.70
2022-11-24T17:20:37.187Z,6.70
2022-11-24T17:23:03.770Z,6.70
2022-11-24T17:25:30.258Z,6.70
2022-11-24T17:27:56.738Z,6.60
2022-11-24T17:30:23.229Z,6.60
2022-11-24T17:32:55.159Z,6.60
2022-11-24T17:35:23.498Z,6.60
2022-11-24T17:37:50.006Z,6.60
2022-11-24T17:40:34.360Z,6.60
2022-11-24T17:43:00.952Z,6.50
2022-11-24T17:45:27.614Z,6.50
2022-11-24T17:47:54.146Z,6.50
2022-11-24T17:50:25.419Z,6.40
2022-11-24T17:52:52.399Z,6.40
2022-11-24T17:55:18.994Z,6.40
2022-11-24T17:57:45.491Z,6.30
2022-11-24T18:00:11.974Z,6.30
2022-11-24T18:02:38.729Z,6.30
2022-11-24T18:05:05.338Z,6.30
2022-11-24T18:07:31.945Z,6.30
2022-11-24T18:09:58.490Z,6.20
2022-11-24T18:12:25.126Z,6.20
2022-11-24T18:14:52.175Z,6.20
2022-11-24T18:17:18.674Z,6.20
2022-11-24T18:19:45.568Z,6.10
2022-11-24T18:22:12.098Z,6.10
2022-11-24T18:24:38.682Z,6.00
2022-11-24T18:27:05.462Z,6.00
2022-11-24T18:29:31.929Z,6.00
2022-11-24T18:31:58.828Z,6.00
2022-11-24T18:34:25.338Z,5.90
2022-11-24T18:36:52.513Z,5.90
2022-11-24T18:39:19.297Z,5.90
2022-11-24T18:41:45.874Z,5.90
2022-11-24T18:44:12.514Z,5.90
2022-11-24T18:46:39.142Z,5.90
2022-11-24T18:49:06.939Z,5.80
2022-11-24T18:51:33.903Z,5.80
2022-11-24T18:54:02.088Z,5.80
2022-11-24T18:56:29.083Z,5.80
2022-11-24T18:58:55.690Z,5.70
2022-11-24T19:01:26.607Z,5.70
2022-11-24T19:03:55.845Z,5.70
2022-11-24T19:09:04.244Z,5.60
2022-11-24T19:11:34.006Z,5.60
2022-11-24T19:14:01.426Z,5.60
2022-11-24T19:16:28.534Z,5.60
2022-11-24T19:18:57.167Z,5.50
2022-11-24T19:21:27.067Z,5.60
2022-11-24T19:24:04.554Z,5.50
2022-11-24T19:26:38.203Z,5.50
2022-11-24T19:29:08.860Z,5.50
2022-11-24T19:31:36.395Z,5.50
2022-11-24T19:34:08.824Z,5.50
2022-11-24T19:36:41.265Z,5.60
2022-11-24T19:39:07.973Z,5.60
2022-11-24T19:41:34.579Z,5.50
2022-11-24T19:44:01.242Z,5.60
2022-11-24T19:46:28.548Z,5.60
2022-11-24T19:48:56.786Z,5.50
2022-11-24T19:51:23.286Z,5.60
2022-11-24T19:53:49.986Z,5.50
2022-11-24T19:56:16.627Z,5.50
2022-11-24T19:58:43.163Z,5.50
2022-11-24T20:01:09.733Z,5.60
2022-11-24T20:03:36.424Z,5.60
2022-11-24T20:06:04.112Z,5.60
2022-11-24T20:08:30.880Z,5.60
2022-11-24T20:10:57.371Z,5.70
2022-11-24T20:13:23.939Z,5.60
2022-11-24T20:15:50.583Z,5.70
2022-11-24T20:18:17.308Z,5.70
2022-11-24T20:20:45.339Z,5.70
2022-11-24T20:23:14.311Z,5.70
2022-11-24T20:25:40.790Z,5.80
2022-11-24T20:28:07.292Z,5.80
2022-11-24T20:30:33.798Z,5.80
2022-11-24T20:33:00.712Z,5.80
2022-11-24T20:35:27.182Z,5.80
2022-11-24T20:37:53.710Z,5.90
2022-11-24T20:40:20.200Z,5.90
2022-11-24T20:42:46.786Z,5.90
2022-11-24T20:45:13.503Z,5.90
2022-11-24T20:47:40.015Z,6.00
2022-11-24T20:50:08.341Z,6.00
2022-11-24T20:52:36.148Z,6.00
2022-11-24T20:55:03.974Z,6.00
2022-11-24T20:57:30.597Z,6.00
2022-11-24T20:59:57.104Z,6.00
2022-11-24T21:02:23.786Z,6.00
2022-11-24T21:04:50.283Z,6.00
2022-11-24T21:07:16.996Z,6.00
2022-11-24T21:09:43.697Z,6.10
2022-11-24T21:12:10.286Z,6.10
2022-11-24T21:14:37.145Z,6.00
2022-11-24T21:17:04.088Z,6.10
2022-11-24T21:19:30.759Z,6.00
2022-11-24T21:24:25.122Z,6.10
2022-11-24T21:26:52.603Z,6.10
2022-11-24T21:29:22.080Z,6.00
2022-11-24T21:31:48.765Z,6.00
2022-11-24T21:34:15.393Z,6.10
2022-11-24T21:36:44.687Z,6.00
2022-11-24T21:39:12.616Z,6.00
2022-11-24T21:41:39.448Z,5.90
2022-11-24T21:44:05.974Z,5.90
2022-11-24T21:46:38.974Z,5.90
2022-11-24T21:49:08.899Z,5.90
2022-11-24T21:51:35.373Z,5.90
2022-11-24T21:54:01.875Z,5.90
2022-11-24T21:56:28.358Z,5.90
2022-11-24T21:58:54.961Z,5.90
2022-11-24T22:01:21.656Z,5.90
2022-11-24T22:03:48.210Z,5.90
2022-11-24T22:06:14.759Z,5.90
2022-11-24T22:08:41.264Z,5.90
2022-11-24T22:11:07.846Z,5.80
2022-11-24T22:13:34.358Z,5.70
2022-11-24T22:16:00.982Z,5.60
2022-11-24T22:18:27.535Z,5.50
2022-11-24T22:20:54.061Z,5.40
2022-11-24T22:23:20.715Z,5.40
2022-11-24T22:25:47.220Z,5.40
2022-11-24T22:28:13.715Z,5.30
2022-11-24T22:30:40.246Z,5.30
2022-11-24T22:33:06.722Z,5.30
2022-11-24T22:35:33.255Z,5.30
2022-11-24T22:37:59.771Z,5.30
2022-11-24T22:40:26.241Z,5.20
2022-11-24T22:42:52.742Z,5.20
2022-11-24T22:45:19.230Z,5.30
2022-11-24T22:47:48.393Z,5.30
2022-11-24T22:50:14.883Z,5.30
2022-11-24T22:52:41.380Z,5.30
2022-11-24T22:55:07.882Z,5.30
2022-11-24T22:57:34.353Z,5.40
2022-11-24T23:00:00.912Z,5.40
2022-11-24T23:02:27.419Z,5.40
2022-11-24T23:04:53.932Z,5.40
2022-11-24T23:07:20.517Z,5.40
2022-11-24T23:09:47.623Z,5.40
2022-11-24T23:12:14.198Z,5.40
2022-11-24T23:14:40.724Z,5.40
2022-11-24T23:17:07.260Z,5.40
2022-11-24T23:19:33.758Z,5.30
2022-11-24T23:22:00.533Z,5.30
2022-11-24T23:24:27.070Z,5.30
2022-11-24T23:26:53.565Z,5.30
2022-11-24T23:29:20.055Z,5.30
2022-11-24T23:31:46.619Z,5.30
2022-11-24T23:34:13.149Z,5.30
2022-11-24T23:36:39.712Z,5.40
2022-11-24T23:39:06.389Z,5.40
2022-11-24T23:41:32.933Z,5.40
2022-11-24T23:43:59.975Z,5.40
2022-11-24T23:46:26.475Z,5.40
2022-11-24T23:48:53.023Z,5.30
2022-11-24T23:51:19.571Z,5.40
2022-11-24T23:53:46.048Z,5.40
2022-11-24T23:56:12.534Z,5.40
2022-11-24T23:58:39.075Z,5.40
